Flight Track Log - Related Links

Times and Time Zones

All times are in EDT time to prevent confusion due to time zone crossing. See the EMD21 flight status page for this flight to view local times or setup timezone preferences in your user account.

Time Position Orientation Groundspeed Altitude Reporting Facility
EDT Latitude Longitude Course Direction KTS MPH feet Rate Location/Type
Sun 12:06:20 PM 36.1622 -93.2747 238° Southwest 229 264 5,500  Level Memphis Center
Sun 12:07:20 PM 36.1303 -93.3019 215° Southwest 194 223 6,900 1,550 Climbing Memphis Center
Sun 12:08:20 PM 36.1003 -93.3369 223° Southwest 168 193 8,600 1,450 Climbing Memphis Center
Sun 12:09:20 PM 36.0722 -93.3717 225° Southwest 155 178 9,800 900 Climbing Memphis Center
Sun 12:10:00 PM 36.0896 -93.4708 238° Southwest  Level FlightAware Approximate
Sun 12:10:20 PM 36.0319 -93.3986 208° Southwest 149 171 10,400  Level Memphis Center
Sun 12:11:20 PM 35.9833 -93.4225 202° Southwest 171 197 11,100 600 Climbing Memphis Center
Sun 12:12:20 PM 35.9367 -93.4539 209° Southwest 187 215 11,600 350 Climbing Memphis Center
Sun 12:13:20 PM 35.9061 -93.5144 238° Southwest 192 221 11,800 250 Climbing Memphis Center
Sun 12:14:20 PM 35.8856 -93.5775 248° West 207 238 12,100 150 Climbing Memphis Center
Sun 12:15:20 PM 35.8608 -93.6458 246° West 207 238 12,100  Level Memphis Center
Sun 12:16:20 PM 35.8342 -93.7114 243° Southwest 213 245 12,100  Level Memphis Center
Sun 12:17:20 PM 35.8033 -93.7739 239° Southwest 213 245 12,100  Level Memphis Center
Sun 12:18:20 PM 35.7722 -93.8367 239° Southwest 218 251 12,100  Level Memphis Center
Sun 12:19:20 PM 35.7433 -93.9044 242° Southwest 223 257 12,100  Level Memphis Center
Sun 12:20:20 PM 35.7142 -93.9725 242° Southwest 223 257 12,100  Level Memphis Center
Sun 12:21:20 PM 35.6808 -94.0500 242° Southwest 230 265 12,100  Level Memphis Center
Sun 12:22:20 PM 35.6536 -94.1178 244° Southwest 235 270 12,100 -50 Level Memphis Center
Sun 12:23:20 PM 35.6292 -94.1678 239° Southwest 230 265 12,000 -50 Descending Memphis Center
Sun 12:24:20 PM 35.5958 -94.2328 238° Southwest 225 259 12,000  Level Memphis Center
Sun 12:25:20 PM 35.5667 -94.3003 242° Southwest 220 253 12,000  Level Memphis Center
Sun 12:26:20 PM 35.5350 -94.3803 244° Southwest 237 273 12,000  Level Memphis Center
Sun 12:27:20 PM 35.5058 -94.4428 240° Southwest 237 273 12,000  Level Memphis Center
Sun 12:28:20 PM 35.4764 -94.5103 242° Southwest 227 261 12,000  Level Memphis Center
Sun 12:29:20 PM 35.4472 -94.5750 241° Southwest 227 261 12,000  Level Memphis Center
Sun 12:30:20 PM 35.4158 -94.6397 239° Southwest 222 255 12,000  Level Memphis Center
Sun 12:31:20 PM 35.3883 -94.7044 242° Southwest 222 255 12,000  Level Memphis Center
Sun 12:32:20 PM 35.3614 -94.7642 241° Southwest 222 255 12,000  Level Memphis Center
Sun 12:33:20 PM 35.3300 -94.8261 238° Southwest 217 250 12,000  Level Memphis Center
Sun 12:34:20 PM 35.3006 -94.8906 241° Southwest 217 250 12,000 -50 Level Memphis Center
Sun 12:35:20 PM 35.2731 -94.9553 243° Southwest 217 250 11,900 -500 Descending Memphis Center
Sun 12:36:20 PM 35.2392 -95.0219 238° Southwest 225 259 11,000 -710 Descending Memphis Center
Sun 12:38:26 PM 35.1817 -95.1553 242° Southwest 222 255 9,700 -677 Descending Fort Worth Center
Sun 12:39:26 PM 35.1514 -95.2172 239° Southwest 222 255 8,900 -1,100 Descending Fort Worth Center
Sun 12:40:26 PM 35.1172 -95.2917 241° Southwest 234 269 7,500 -1,200 Descending Fort Worth Center
Sun 12:41:26 PM 35.0850 -95.3636 241° Southwest 234 269 6,500 -950 Descending Fort Worth Center
Sun 12:42:26 PM 35.0569 -95.4250 241° Southwest 228 262 5,600 -800 Descending Fort Worth Center
Sun 12:43:26 PM 35.0264 -95.4867 239° Southwest 223 257 4,900 -700 Descending Fort Worth Center

Login

Don't have an account? Register now (free) for customized features, flight alerts, and more!